Lotbiniere, Canada
Current Conditions -  °F | °C
As of 3:00 PM on Saturday 25 Oct 2014 (Local Time) from CYQB Reporting Station
Broken Clouds Broken Clouds  
Wind Chill: 48°   Ceiling: 15000
Heat Index: 48°   Visibility: 10mi
Dew Point: 39°   Wind: 3mph
Humidity: 71%   Direction: 290°WNW
Pressure: 29.56"   Gusts: NA
Location:  46.62°N, 71.93°W
Report Text: CYQB 251900Z 29003KT 10SM FEW015 FEW040 BKN150 BKN240 09/04 A2956 RMK SC1SC1AC4CI1 SLP011
Loading
Personal Weather Stations






























Interactive Weather Map
Tropical Storm Tracking
New forecast layout! Learn more

10-Day Weather Forecast

Advertisements
Track Severe Weather on mobile